Time;durP1;ratioP1;P1;durP2;ratioP2;P2;SDS_P1;SDS_P2;PMS_P1;PMS_P2;Temp;Humidity;BMP_temperature;BMP_pressure;BME280_temperature;BME280_humidity;BME280_pressure;Samples;Min_cycle;Max_cycle;Signal;HPM_P1;HPM_P2
2022/04/06 00:00:49;;;;;;;13.73;8.33;;;7.90;99.90;;;;;;5006529;28;20212;-50
2022/04/06 00:03:15;;;;;;;13.80;8.27;;;8.00;99.90;;;;;;4998759;28;20445;-50
2022/04/06 00:05:41;;;;;;;13.10;8.57;;;8.00;99.90;;;;;;5002336;28;20188;-51
2022/04/06 00:08:06;;;;;;;12.53;8.13;;;8.00;99.90;;;;;;4991079;28;20792;-50
2022/04/06 00:10:32;;;;;;;13.60;8.30;;;8.10;99.90;;;;;;5002970;28;20473;-50
2022/04/06 00:12:59;;;;;;;11.67;7.93;;;8.10;99.90;;;;;;4984775;28;20196;-49
2022/04/06 00:15:26;;;;;;;11.87;7.13;;;8.10;99.90;;;;;;5004331;28;20435;-50
2022/04/06 00:17:51;;;;;;;13.30;8.10;;;8.20;99.90;;;;;;4995806;28;20442;-50
2022/04/06 00:20:17;;;;;;;11.57;7.33;;;8.30;99.90;;;;;;5006019;28;20897;-49
2022/04/06 00:22:43;;;;;;;10.67;7.33;;;8.30;99.90;;;;;;4993173;28;20192;-50
2022/04/06 00:25:09;;;;;;;9.70;7.13;;;8.30;99.90;;;;;;5004943;28;20195;-50
2022/04/06 00:27:35;;;;;;;10.73;6.93;;;8.40;99.90;;;;;;4995802;28;20192;-50
2022/04/06 00:30:01;;;;;;;12.47;7.20;;;8.40;99.90;;;;;;4984472;28;20505;-51
2022/04/06 00:32:27;;;;;;;10.23;6.60;;;8.40;99.90;;;;;;5002768;28;20470;-50
2022/04/06 00:37:37;;;;;;;9.77;6.70;;;8.40;99.90;;;;;;4990518;28;20295;-49
2022/04/06 00:40:04;;;;;;;11.23;7.67;;;8.40;99.90;;;;;;4995435;28;20518;-50
2022/04/06 00:42:30;;;;;;;10.97;7.17;;;8.40;99.90;;;;;;4993468;28;20199;-51
2022/04/06 00:44:55;;;;;;;11.20;7.27;;;8.40;99.90;;;;;;5001002;28;20481;-50
2022/04/06 00:47:22;;;;;;;8.93;6.83;;;8.40;99.90;;;;;;4997068;28;20244;-50
2022/04/06 00:49:48;;;;;;;12.10;7.17;;;8.40;99.90;;;;;;4995987;28;20211;-49
2022/04/06 00:52:13;;;;;;;14.60;7.40;;;8.40;99.90;;;;;;5005652;28;20474;-49
2022/04/06 00:54:40;;;;;;;10.80;7.57;;;8.40;99.90;;;;;;4995486;28;20191;-50
2022/04/06 00:57:11;;;;;;;9.40;6.80;;;8.40;99.90;;;;;;4999595;28;20579;-50
2022/04/06 00:59:37;;;;;;;8.40;6.00;;;8.40;99.90;;;;;;5014520;28;20624;-49
2022/04/06 01:02:03;;;;;;;9.70;7.07;;;8.50;99.90;;;;;;5017888;28;20316;-50
2022/04/06 01:04:29;;;;;;;10.53;6.47;;;8.50;99.90;;;;;;5009728;28;20434;-49
2022/04/06 01:06:54;;;;;;;8.87;6.47;;;8.40;99.90;;;;;;4994770;28;20454;-50
2022/04/06 01:09:21;;;;;;;8.93;6.40;;;8.50;99.90;;;;;;5017950;28;20752;-50
2022/04/06 01:11:50;;;;;;;9.00;6.13;;;8.50;99.90;;;;;;5007905;28;20211;-50
2022/04/06 01:14:18;;;;;;;9.60;6.97;;;8.50;99.90;;;;;;5014700;28;20453;-49
2022/04/06 01:16:57;;;;;;;9.00;5.87;;;8.50;99.90;;;;;;5009656;28;20793;-49
2022/04/06 01:19:23;;;;;;;7.40;5.27;;;8.50;99.90;;;;;;5018496;28;20458;-50
2022/04/06 01:21:48;;;;;;;8.23;5.60;;;8.40;99.90;;;;;;5017694;28;20471;-50
2022/04/06 01:24:14;;;;;;;8.23;5.20;;;8.50;99.90;;;;;;5009499;28;20231;-49
2022/04/06 01:26:39;;;;;;;6.97;5.30;;;8.50;99.90;;;;;;5014946;28;20192;-49
2022/04/06 01:29:05;;;;;;;8.83;5.27;;;8.50;99.90;;;;;;5004985;28;20196;-49
2022/04/06 01:31:30;;;;;;;6.77;5.30;;;8.40;99.90;;;;;;5015346;28;20219;-50
2022/04/06 01:33:56;;;;;;;8.40;5.30;;;8.40;99.90;;;;;;5008855;28;20238;-49
2022/04/06 01:36:22;;;;;;;8.03;5.33;;;8.40;99.90;;;;;;5012699;28;20179;-50
2022/04/06 01:38:47;;;;;;;10.83;5.87;;;8.40;99.90;;;;;;5002550;28;20262;-50
2022/04/06 01:41:13;;;;;;;8.53;4.97;;;8.40;99.90;;;;;;5020369;28;20278;-50
2022/04/06 01:43:38;;;;;;;9.77;5.43;;;8.40;99.90;;;;;;5021722;28;20267;-50
2022/04/06 01:46:04;;;;;;;9.10;5.00;;;8.40;99.90;;;;;;5023170;28;20291;-50
2022/04/06 01:48:29;;;;;;;10.37;5.03;;;8.50;99.90;;;;;;5015290;28;20201;-51
2022/04/06 01:53:39;;;;;;;7.63;5.23;;;8.50;99.90;;;;;;5026606;28;20648;-49
2022/04/06 01:56:04;;;;;;;9.43;4.60;;;8.50;99.90;;;;;;5022043;28;20438;-49
2022/04/06 01:58:30;;;;;;;5.30;4.67;;;8.40;99.90;;;;;;5017985;28;20183;-49
2022/04/06 02:00:55;;;;;;;6.00;3.80;;;8.40;99.90;;;;;;5023624;28;20281;-48
2022/04/06 02:03:21;;;;;;;5.23;4.47;;;8.40;99.90;;;;;;5018156;28;20225;-47
2022/04/06 02:05:47;;;;;;;4.60;4.00;;;8.40;99.90;;;;;;5025281;28;20199;-47
2022/04/06 02:08:12;;;;;;;7.07;4.50;;;8.40;99.90;;;;;;5008315;28;20196;-47
2022/04/06 02:10:41;;;;;;;4.93;4.23;;;8.40;99.90;;;;;;5019936;28;20237;-47
2022/04/06 02:13:06;;;;;;;5.07;3.87;;;8.40;99.90;;;;;;5015341;28;20198;-47
2022/04/06 02:15:32;;;;;;;6.73;4.33;;;8.40;99.90;;;;;;5028185;28;20422;-47
2022/04/06 02:17:57;;;;;;;5.27;4.17;;;8.40;99.90;;;;;;5014156;28;20194;-47
2022/04/06 02:20:23;;;;;;;5.70;3.90;;;8.40;99.90;;;;;;5019164;28;20198;-47
2022/04/06 02:22:49;;;;;;;4.47;3.87;;;8.40;99.90;;;;;;5017119;28;20191;-47
2022/04/06 02:25:15;;;;;;;6.73;4.30;;;8.40;99.90;;;;;;5017716;28;20195;-47
2022/04/06 02:27:58;;;;;;;4.07;3.50;;;8.30;99.90;;;;;;5023814;28;20526;-47
2022/04/06 02:30:24;;;;;;;7.37;4.23;;;8.30;99.90;;;;;;5026768;28;20187;-47
2022/04/06 02:32:50;;;;;;;7.53;4.40;;;8.30;99.90;;;;;;5017533;28;20449;-49
2022/04/06 02:35:16;;;;;;;7.60;5.20;;;8.20;99.90;;;;;;5017666;28;20191;-49
2022/04/06 02:37:44;;;;;;;7.37;4.63;;;8.30;99.90;;;;;;5028716;28;20438;-49
2022/04/06 02:40:11;;;;;;;7.13;4.50;;;8.30;99.90;;;;;;5005599;28;20452;-49
2022/04/06 02:42:36;;;;;;;7.40;4.40;;;8.30;99.90;;;;;;5026391;28;20794;-49
2022/04/06 02:45:02;;;;;;;7.80;5.73;;;8.30;99.90;;;;;;4997922;28;20450;-49
2022/04/06 02:47:27;;;;;;;8.90;5.30;;;8.30;99.90;;;;;;5003710;28;20202;-50
2022/04/06 02:49:53;;;;;;;9.23;5.90;;;8.30;99.90;;;;;;5019623;28;20437;-49
2022/04/06 02:52:19;;;;;;;7.90;5.90;;;8.30;99.90;;;;;;5015185;28;20243;-50
2022/04/06 02:54:44;;;;;;;10.30;6.67;;;8.30;99.90;;;;;;5005478;28;20207;-49
2022/04/06 02:57:10;;;;;;;12.07;7.73;;;8.30;99.90;;;;;;5020707;28;20196;-49
2022/04/06 02:59:39;;;;;;;11.57;7.20;;;8.30;99.90;;;;;;5017496;28;20237;-49
2022/04/06 03:02:04;;;;;;;12.27;7.80;;;8.30;99.90;;;;;;5031991;28;20432;-49
2022/04/06 03:04:31;;;;;;;13.60;8.97;;;8.30;99.90;;;;;;5031578;28;20398;-49
2022/04/06 03:06:57;;;;;;;12.17;8.33;;;8.30;99.90;;;;;;5026839;28;20202;-49
2022/04/06 03:09:22;;;;;;;12.67;8.30;;;8.30;99.90;;;;;;5006171;28;20441;-49
2022/04/06 03:11:48;;;;;;;11.87;8.73;;;8.30;99.90;;;;;;5019604;28;20218;-49
2022/04/06 03:14:13;;;;;;;14.00;8.77;;;8.30;99.90;;;;;;5011136;28;20183;-50
2022/04/06 03:16:39;;;;;;;15.90;9.60;;;8.30;99.90;;;;;;5018801;28;20195;-49
2022/04/06 03:19:05;;;;;;;16.63;9.40;;;8.20;99.90;;;;;;5013405;28;20187;-49
2022/04/06 03:21:31;;;;;;;14.20;9.77;;;8.30;99.90;;;;;;5017738;28;20194;-49
2022/04/06 03:23:56;;;;;;;19.60;10.40;;;8.30;99.90;;;;;;5013652;28;20445;-50
2022/04/06 03:26:22;;;;;;;17.40;11.27;;;8.20;99.90;;;;;;5002051;28;20274;-50
2022/04/06 03:28:47;;;;;;;18.43;10.70;;;8.20;99.90;;;;;;5028935;28;20229;-49
2022/04/06 03:31:13;;;;;;;16.10;11.07;;;8.30;99.90;;;;;;5016558;28;20317;-50
2022/04/06 03:33:38;;;;;;;18.00;10.90;;;8.30;99.90;;;;;;5025241;28;20578;-49
2022/04/06 03:36:04;;;;;;;22.93;11.47;;;8.30;99.90;;;;;;5014785;28;20202;-49
2022/04/06 03:38:30;;;;;;;24.43;12.10;;;8.30;99.90;;;;;;5019978;28;20187;-49
2022/04/06 03:40:56;;;;;;;21.03;12.80;;;8.30;99.90;;;;;;5021216;28;20663;-49
2022/04/06 03:43:22;;;;;;;22.60;12.63;;;8.40;99.90;;;;;;5020424;28;20904;-49
2022/04/06 03:45:49;;;;;;;26.13;13.27;;;8.40;99.90;;;;;;5020492;28;20460;-49
2022/04/06 03:48:15;;;;;;;21.33;12.83;;;8.40;99.90;;;;;;5021780;28;20277;-49
2022/04/06 03:50:40;;;;;;;21.10;12.73;;;8.40;99.90;;;;;;5015370;28;20581;-49
2022/04/06 03:53:06;;;;;;;22.03;13.07;;;8.40;99.90;;;;;;5017295;28;20195;-49
2022/04/06 03:55:32;;;;;;;26.20;15.20;;;8.40;99.90;;;;;;5019902;28;20445;-49
2022/04/06 03:57:57;;;;;;;24.83;13.60;;;8.40;99.90;;;;;;5022572;28;20186;-49
2022/04/06 04:00:23;;;;;;;29.60;14.03;;;8.40;99.90;;;;;;5018203;28;20239;-49
2022/04/06 04:02:48;;;;;;;27.77;13.57;;;8.40;99.90;;;;;;5021949;28;20191;-49
2022/04/06 04:05:15;;;;;;;27.60;15.23;;;8.40;99.90;;;;;;5017893;28;20792;-49
2022/04/06 04:07:43;;;;;;;28.57;14.80;;;8.40;99.90;;;;;;5012860;28;20188;-50
2022/04/06 04:10:10;;;;;;;27.83;15.03;;;8.40;99.90;;;;;;5020375;28;20436;-49
2022/04/06 04:12:36;;;;;;;31.27;15.37;;;8.40;99.90;;;;;;5015802;28;20480;-50
2022/04/06 04:15:03;;;;;;;34.23;16.13;;;8.50;99.90;;;;;;5016645;28;20911;-49
2022/04/06 04:17:28;;;;;;;28.23;16.90;;;8.50;99.90;;;;;;5030139;28;20421;-49
2022/04/06 04:19:54;;;;;;;31.83;16.47;;;8.50;99.90;;;;;;5030762;28;20403;-49
2022/04/06 04:22:19;;;;;;;35.60;18.07;;;8.50;99.90;;;;;;5015298;28;20885;-49
2022/04/06 04:24:45;;;;;;;28.40;17.13;;;8.50;99.90;;;;;;4992978;28;20198;-49
2022/04/06 04:27:10;;;;;;;29.47;16.93;;;8.50;99.90;;;;;;5011747;28;20668;-49
2022/04/06 04:29:37;;;;;;;31.03;17.97;;;8.60;99.90;;;;;;5004423;28;20191;-49
2022/04/06 04:32:03;;;;;;;37.10;19.40;;;8.60;99.90;;;;;;5010301;28;20646;-49
2022/04/06 04:34:29;;;;;;;40.00;21.37;;;8.50;99.90;;;;;;5009847;28;20570;-49
2022/04/06 04:36:55;;;;;;;34.40;18.80;;;8.60;99.90;;;;;;5010241;28;20427;-49
2022/04/06 04:39:20;;;;;;;35.23;19.40;;;8.60;99.90;;;;;;5010000;28;20184;-49
2022/04/06 04:41:47;;;;;;;41.80;20.80;;;8.60;99.90;;;;;;5010414;28;20434;-49
2022/04/06 04:44:13;;;;;;;42.33;22.23;;;8.60;99.90;;;;;;5010462;28;20171;-49
2022/04/06 04:46:39;;;;;;;37.67;20.90;;;8.60;99.90;;;;;;5009976;28;20435;-49
2022/04/06 04:49:04;;;;;;;46.63;23.97;;;8.50;99.90;;;;;;5021224;28;20441;-49
2022/04/06 04:51:30;;;;;;;41.47;24.17;;;8.50;99.90;;;;;;5015060;28;20625;-49
2022/04/06 04:53:57;;;;;;;43.77;25.00;;;8.50;99.90;;;;;;5020483;28;20184;-49
2022/04/06 04:56:24;;;;;;;47.07;25.07;;;8.50;99.90;;;;;;5018008;28;20274;-49
2022/04/06 04:58:51;;;;;;;47.50;25.87;;;8.60;99.90;;;;;;5012937;28;20481;-49
2022/04/06 05:01:16;;;;;;;47.37;25.43;;;8.60;99.90;;;;;;5025509;28;20508;-49
2022/04/06 05:03:42;;;;;;;45.60;26.50;;;8.60;99.90;;;;;;5010153;28;20462;-49
2022/04/06 05:06:07;;;;;;;57.67;28.97;;;8.70;99.90;;;;;;5011811;28;20195;-50
2022/04/06 05:08:33;;;;;;;47.53;30.30;;;8.70;99.90;;;;;;5018076;28;20230;-49
2022/04/06 05:10:58;;;;;;;51.80;29.57;;;8.70;99.90;;;;;;5020177;28;20216;-49
2022/04/06 05:13:24;;;;;;;50.87;29.60;;;8.70;99.90;;;;;;5022228;28;20190;-49
2022/04/06 05:15:49;;;;;;;51.70;28.60;;;8.70;99.90;;;;;;5012609;28;20188;-49
2022/04/06 05:18:15;;;;;;;61.37;29.97;;;8.70;99.90;;;;;;5013444;28;20549;-49
2022/04/06 05:20:41;;;;;;;54.87;29.77;;;8.70;99.90;;;;;;5026329;28;20279;-49
2022/04/06 05:23:06;;;;;;;60.07;30.77;;;8.70;99.90;;;;;;5017599;28;20187;-49
2022/04/06 05:25:32;;;;;;;56.20;30.37;;;8.80;99.90;;;;;;4996157;28;20304;-49
2022/04/06 05:27:57;;;;;;;53.20;29.20;;;8.80;99.90;;;;;;5023074;28;20186;-49
2022/04/06 05:30:25;;;;;;;58.97;30.50;;;8.80;99.90;;;;;;5025124;28;20190;-49
2022/04/06 05:32:53;;;;;;;52.53;28.33;;;8.80;99.90;;;;;;5013516;28;20195;-49
2022/04/06 05:35:19;;;;;;;52.17;28.73;;;8.80;99.90;;;;;;5013242;28;20422;-49
2022/04/06 05:37:45;;;;;;;48.40;28.40;;;8.80;99.90;;;;;;5013581;28;20469;-49
2022/04/06 05:40:14;;;;;;;53.20;26.27;;;8.80;99.90;;;;;;5013427;28;20417;-49
2022/04/06 05:42:41;;;;;;;54.37;28.47;;;8.80;99.90;;;;;;5013442;28;20975;-49
2022/04/06 05:45:07;;;;;;;60.00;28.57;;;8.80;99.90;;;;;;5012014;28;20437;-49
2022/04/06 05:47:34;;;;;;;48.10;26.57;;;8.80;99.90;;;;;;5013383;28;20488;-49
2022/04/06 05:50:01;;;;;;;46.40;24.47;;;8.90;99.90;;;;;;5013579;28;20440;-49
2022/04/06 05:52:27;;;;;;;36.67;22.77;;;8.90;99.90;;;;;;5013277;28;20454;-49
2022/04/06 05:54:52;;;;;;;42.80;22.30;;;8.90;99.90;;;;;;5013370;28;20469;-48
2022/04/06 05:57:19;;;;;;;53.83;21.97;;;9.00;99.90;;;;;;5013477;28;20175;-54
2022/04/06 05:59:45;;;;;;;36.63;20.43;;;8.90;99.90;;;;;;5012641;28;20231;-49
2022/04/06 06:02:11;;;;;;;33.97;19.83;;;9.00;99.90;;;;;;4995870;28;20430;-50
2022/04/06 06:04:38;;;;;;;39.97;18.80;;;9.00;99.90;;;;;;5012940;28;20475;-50
2022/04/06 06:07:05;;;;;;;39.00;18.03;;;9.00;99.90;;;;;;5013602;28;20517;-50
2022/04/06 06:09:32;;;;;;;37.10;18.63;;;9.00;99.90;;;;;;5012951;28;20398;-50
2022/04/06 06:11:58;;;;;;;30.23;17.03;;;9.10;99.90;;;;;;5012927;28;20459;-50
2022/04/06 06:14:24;;;;;;;33.17;16.37;;;9.10;99.90;;;;;;5012901;28;20406;-49
2022/04/06 06:16:50;;;;;;;39.83;18.13;;;9.10;99.90;;;;;;5004240;28;20482;-49
2022/04/06 06:19:16;;;;;;;33.97;17.07;;;9.10;99.90;;;;;;5012468;28;21378;-50
2022/04/06 06:21:42;;;;;;;32.67;16.87;;;9.10;99.90;;;;;;5012499;28;20262;-49
2022/04/06 06:24:07;;;;;;;34.53;15.43;;;9.10;99.90;;;;;;5012550;28;20457;-49
2022/04/06 06:26:34;;;;;;;24.63;14.57;;;9.10;99.90;;;;;;5012161;28;20199;-50
2022/04/06 06:29:00;;;;;;;29.60;13.87;;;9.20;99.90;;;;;;5012387;28;20235;-50
2022/04/06 06:31:28;;;;;;;27.13;13.90;;;9.20;99.90;;;;;;5023552;28;20889;-50
2022/04/06 06:33:54;;;;;;;25.97;14.00;;;9.20;99.90;;;;;;5023963;28;20947;-49
2022/04/06 06:36:20;;;;;;;30.73;13.80;;;9.20;99.90;;;;;;5012794;28;20928;-49
2022/04/06 06:38:45;;;;;;;30.33;13.93;;;9.10;99.90;;;;;;5012053;28;20433;-50
2022/04/06 06:41:11;;;;;;;34.27;14.73;;;9.10;99.90;;;;;;5012422;28;20238;-49
2022/04/06 06:43:36;;;;;;;32.97;14.20;;;9.10;99.90;;;;;;4998082;28;20192;-49
2022/04/06 06:46:02;;;;;;;31.37;14.00;;;9.10;99.90;;;;;;5004608;28;20203;-50
2022/04/06 06:48:27;;;;;;;38.73;14.03;;;9.20;99.90;;;;;;4997734;28;20267;-49
2022/04/06 06:50:53;;;;;;;29.97;13.20;;;9.20;99.90;;;;;;4999040;28;20254;-49
2022/04/06 06:53:18;;;;;;;27.27;15.20;;;9.20;99.90;;;;;;4989585;28;20187;-49
2022/04/06 06:55:44;;;;;;;28.53;14.43;;;9.30;99.90;;;;;;5007651;28;20191;-49
2022/04/06 06:58:10;;;;;;;28.83;13.80;;;9.30;99.90;;;;;;5010251;28;20595;-49
2022/04/06 07:00:35;;;;;;;28.37;14.00;;;9.30;99.90;;;;;;4993997;28;20470;-49
2022/04/06 07:03:01;;;;;;;27.33;13.70;;;9.40;99.90;;;;;;5020206;28;20539;-49
2022/04/06 07:05:28;;;;;;;25.50;13.67;;;9.50;99.90;;;;;;5030469;28;20209;-49
2022/04/06 07:08:01;;;;;;;26.77;13.63;;;9.60;99.90;;;;;;5009252;28;20250;-49
2022/04/06 07:10:28;;;;;;;31.00;15.37;;;9.60;99.90;;;;;;5008498;28;20434;-49
2022/04/06 07:12:57;;;;;;;32.70;16.00;;;9.70;99.90;;;;;;5010987;28;20430;-50
2022/04/06 07:15:24;;;;;;;38.40;16.73;;;9.70;99.90;;;;;;5006365;28;20418;-49
2022/04/06 07:17:53;;;;;;;26.20;16.40;;;9.70;99.90;;;;;;5027975;28;20426;-50
2022/04/06 07:20:18;;;;;;;30.93;16.50;;;9.70;99.90;;;;;;5031361;28;20726;-49
2022/04/06 07:22:44;;;;;;;28.20;16.20;;;9.80;99.90;;;;;;4998923;28;20430;-49
2022/04/06 07:25:10;;;;;;;26.40;15.60;;;9.80;99.90;;;;;;5018441;28;20448;-49
2022/04/06 07:27:37;;;;;;;30.50;16.57;;;9.80;99.90;;;;;;5031376;28;20178;-49
2022/04/06 07:30:08;;;;;;;28.87;15.60;;;9.80;99.90;;;;;;5031181;28;20198;-49
2022/04/06 07:32:36;;;;;;;31.80;16.70;;;9.80;99.90;;;;;;5030974;28;20564;-50
2022/04/06 07:35:04;;;;;;;30.00;16.43;;;9.70;99.90;;;;;;5009827;28;20935;-49
2022/04/06 07:37:49;;;;;;;28.53;15.43;;;9.70;99.90;;;;;;5028892;28;20850;-49
2022/04/06 07:40:20;;;;;;;34.60;16.93;;;9.70;99.90;;;;;;5018190;28;20434;-49
2022/04/06 07:42:46;;;;;;;33.63;17.03;;;9.70;99.90;;;;;;5011074;28;20403;-49
2022/04/06 07:45:14;;;;;;;32.27;16.87;;;9.70;99.90;;;;;;5007237;28;20794;-49
2022/04/06 07:47:40;;;;;;;33.37;17.13;;;9.70;99.90;;;;;;5005285;28;20524;-49
2022/04/06 07:50:07;;;;;;;31.17;17.20;;;9.70;99.90;;;;;;5006629;28;21029;-49
2022/04/06 07:52:34;;;;;;;29.03;17.50;;;9.60;99.90;;;;;;5001891;28;20834;-49
2022/04/06 07:55:00;;;;;;;36.40;17.87;;;9.70;99.90;;;;;;5010638;28;20441;-49
2022/04/06 07:57:27;;;;;;;35.93;15.57;;;9.70;99.90;;;;;;5010736;28;20916;-49
2022/04/06 07:59:54;;;;;;;34.93;16.63;;;9.70;99.90;;;;;;5010390;28;20235;-49
2022/04/06 08:02:21;;;;;;;31.47;17.10;;;9.70;99.90;;;;;;4992869;28;20434;-49
2022/04/06 08:04:46;;;;;;;33.53;17.23;;;9.70;99.90;;;;;;4992289;28;20431;-49
2022/04/06 08:07:12;;;;;;;28.77;17.27;;;9.70;99.90;;;;;;5004369;28;20451;-50
2022/04/06 08:09:38;;;;;;;30.93;18.03;;;9.70;99.90;;;;;;5000809;28;20206;-48
2022/04/06 08:12:04;;;;;;;39.20;18.20;;;9.70;99.90;;;;;;4990979;28;20242;-49
2022/04/06 08:14:29;;;;;;;29.87;16.93;;;9.80;99.90;;;;;;5012844;28;20190;-49
2022/04/06 08:16:56;;;;;;;29.03;17.47;;;9.80;99.90;;;;;;5030040;28;20434;-49
2022/04/06 08:19:22;;;;;;;25.90;16.87;;;9.70;99.90;;;;;;5030133;28;20174;-50
2022/04/06 08:21:52;;;;;;;28.63;17.90;;;9.80;99.90;;;;;;5014156;28;20488;-50
2022/04/06 08:24:18;;;;;;;32.60;18.30;;;9.90;99.90;;;;;;5010301;28;20754;-49
2022/04/06 08:26:43;;;;;;;35.50;16.67;;;9.90;99.90;;;;;;5013963;28;20442;-49
2022/04/06 08:29:09;;;;;;;28.00;16.70;;;9.90;99.90;;;;;;5018634;28;20195;-49
2022/04/06 08:31:35;;;;;;;27.70;16.27;;;9.90;99.90;;;;;;5016980;28;20556;-49
2022/04/06 08:34:03;;;;;;;31.33;15.70;;;9.90;99.90;;;;;;5017538;28;20186;-49
2022/04/06 08:36:29;;;;;;;28.93;16.60;;;9.80;99.90;;;;;;5023190;28;20192;-49
2022/04/06 08:38:55;;;;;;;25.90;15.37;;;9.90;99.90;;;;;;5010605;28;20407;-50
2022/04/06 08:41:24;;;;;;;30.57;17.10;;;9.90;99.90;;;;;;5010575;28;20179;-49
2022/04/06 08:43:49;;;;;;;26.70;14.90;;;9.90;99.90;;;;;;5017870;28;20515;-49
2022/04/06 08:46:15;;;;;;;27.47;16.17;;;9.90;99.90;;;;;;5022215;28;20465;-49
2022/04/06 08:48:43;;;;;;;23.50;15.80;;;10.00;99.90;;;;;;5030039;28;20852;-49
2022/04/06 08:51:09;;;;;;;23.50;15.73;;;10.00;99.90;;;;;;5014428;28;20306;-49
2022/04/06 08:53:42;;;;;;;29.20;15.90;;;10.00;99.90;;;;;;5010960;28;21346;-49
2022/04/06 08:56:08;;;;;;;29.07;15.47;;;10.00;99.90;;;;;;5014352;28;20881;-49
2022/04/06 08:58:34;;;;;;;30.20;15.17;;;10.00;99.90;;;;;;5014143;28;20757;-49
2022/04/06 09:01:00;;;;;;;22.97;15.13;;;10.10;99.90;;;;;;4994901;28;20442;-50
2022/04/06 09:03:26;;;;;;;24.30;15.20;;;10.10;99.90;;;;;;4995015;28;20438;-49
2022/04/06 09:06:03;;;;;;;25.50;14.80;;;10.00;99.90;;;;;;5012876;28;20191;-49
2022/04/06 09:08:46;;;;;;;22.90;13.67;;;10.10;99.90;;;;;;5012583;28;20211;-49
2022/04/06 09:11:14;;;;;;;30.43;13.40;;;10.10;99.90;;;;;;4993097;28;20570;-50
2022/04/06 09:13:41;;;;;;;24.27;13.77;;;10.10;99.90;;;;;;5003976;28;20422;-49
2022/04/06 09:16:15;;;;;;;16.30;12.13;;;10.10;99.90;;;;;;5012325;28;20427;-49
2022/04/06 09:18:44;;;;;;;16.50;10.30;;;10.10;99.90;;;;;;5012184;28;20405;-49
2022/04/06 09:21:15;;;;;;;19.40;10.70;;;10.10;99.90;;;;;;5012844;28;20422;-49
2022/04/06 09:23:41;;;;;;;21.57;11.37;;;10.10;99.90;;;;;;5012358;28;20437;-49
2022/04/06 09:26:09;;;;;;;20.33;11.10;;;10.00;99.90;;;;;;5012432;28;20427;-49
2022/04/06 09:28:41;;;;;;;17.77;11.10;;;10.10;99.90;;;;;;5012926;28;20207;-49
2022/04/06 09:31:08;;;;;;;18.93;10.83;;;10.10;99.90;;;;;;5012194;28;20470;-50
2022/04/06 09:33:39;;;;;;;19.13;10.87;;;10.10;99.90;;;;;;5012197;28;20406;-49
2022/04/06 09:36:17;;;;;;;18.90;11.90;;;10.10;99.90;;;;;;5012272;28;20402;-49
2022/04/06 09:38:50;;;;;;;19.20;11.13;;;10.00;99.90;;;;;;4994660;28;20442;-49
2022/04/06 09:41:18;;;;;;;22.03;12.40;;;10.00;99.90;;;;;;4992782;28;20416;-49
2022/04/06 09:43:48;;;;;;;17.70;11.80;;;10.00;99.90;;;;;;4993053;28;20396;-50
2022/04/06 09:49:08;;;;;;;22.07;11.37;;;9.90;99.90;;;;;;4992678;28;20443;-49
2022/04/06 09:51:38;;;;;;;19.73;11.40;;;9.90;99.90;;;;;;4992502;28;20989;-50
2022/04/06 09:54:06;;;;;;;16.10;10.40;;;9.90;99.90;;;;;;4992517;28;20458;-49
2022/04/06 09:56:33;;;;;;;17.93;9.63;;;10.00;99.90;;;;;;4992554;28;20423;-49
2022/04/06 09:58:59;;;;;;;18.10;10.27;;;9.90;99.90;;;;;;4932304;28;1246998;-50
2022/04/06 10:01:31;;;;;;;14.27;9.77;;;9.80;99.90;;;;;;4993720;28;20180;-50
2022/04/06 10:04:06;;;;;;;16.80;9.80;;;9.80;99.90;;;;;;4976368;28;20478;-49
2022/04/06 10:06:34;;;;;;;18.20;10.60;;;9.80;99.90;;;;;;4995311;28;20442;-51
2022/04/06 10:09:16;;;;;;;16.13;10.20;;;9.70;99.90;;;;;;5013011;28;20418;-49
2022/04/06 10:11:42;;;;;;;13.70;10.30;;;9.70;99.90;;;;;;5013081;28;20446;-49
2022/04/06 10:14:10;;;;;;;16.27;10.93;;;9.60;99.90;;;;;;5012691;28;20423;-49
2022/04/06 10:16:38;;;;;;;21.40;11.90;;;9.60;99.90;;;;;;5012815;28;20395;-49
2022/04/06 10:19:05;;;;;;;19.80;11.20;;;9.60;99.90;;;;;;5013209;28;20434;-49
2022/04/06 10:21:43;;;;;;;19.00;10.83;;;9.70;99.90;;;;;;5012872;28;20772;-49
2022/04/06 10:24:53;;;;;;;16.03;11.30;;;9.70;99.90;;;;;;5012889;28;20947;-49
2022/04/06 10:27:42;;;;;;;16.90;11.20;;;9.60;99.90;;;;;;4913685;29;20435;-50
2022/04/06 10:30:16;;;;;;;17.60;10.73;;;9.60;99.90;;;;;;5012645;28;20477;-48
2022/04/06 10:32:44;;;;;;;14.60;11.03;;;9.60;99.90;;;;;;5012487;28;21001;-48
2022/04/06 10:35:30;;;;;;;18.80;10.60;;;9.70;99.90;;;;;;5012445;28;20489;-48
2022/04/06 10:37:59;;;;;;;13.93;10.70;;;9.70;99.90;;;;;;5012088;28;20422;-48
2022/04/06 10:40:26;;;;;;;16.57;9.90;;;9.60;99.90;;;;;;5012083;28;20446;-48
2022/04/06 10:42:52;;;;;;;15.33;10.13;;;9.60;99.90;;;;;;5012303;28;20461;-47
2022/04/06 10:45:29;;;;;;;18.63;10.10;;;9.60;99.90;;;;;;5012318;28;20488;-48
2022/04/06 10:48:12;;;;;;;15.70;11.03;;;9.60;99.90;;;;;;5012174;28;20452;-48
2022/04/06 10:50:39;;;;;;;26.10;12.20;;;9.60;99.90;;;;;;5012138;28;20912;-47
2022/04/06 10:53:22;;;;;;;16.43;10.80;;;9.60;99.90;;;;;;5011964;28;20434;-48
2022/04/06 10:56:16;;;;;;;19.03;11.33;;;9.50;99.90;;;;;;5012099;28;20502;-47
2022/04/06 10:58:55;;;;;;;16.70;10.83;;;9.50;99.90;;;;;;5011835;28;20529;-47
2022/04/06 11:01:32;;;;;;;20.47;11.47;;;9.60;99.90;;;;;;5012207;28;20450;-47
2022/04/06 11:04:03;;;;;;;17.40;10.77;;;9.60;99.90;;;;;;5011830;28;20437;-48
2022/04/06 11:06:40;;;;;;;16.20;11.27;;;9.60;99.90;;;;;;5013143;28;20435;-47
2022/04/06 11:12:15;;;;;;;21.73;11.83;;;9.40;99.90;;;;;;5011394;28;20477;-47
2022/04/06 11:14:43;;;;;;;17.20;11.30;;;9.50;99.90;;;;;;5011820;28;20757;-48
2022/04/06 11:17:45;;;;;;;15.70;10.23;;;9.60;99.90;;;;;;5011339;28;20403;-48
2022/04/06 11:20:16;;;;;;;19.10;11.47;;;9.60;99.90;;;;;;5007231;28;20441;-48
2022/04/06 11:22:46;;;;;;;17.90;11.60;;;9.60;99.90;;;;;;5011400;28;20435;-48
2022/04/06 11:25:14;;;;;;;19.40;11.23;;;9.70;99.90;;;;;;5011648;28;20437;-47
2022/04/06 11:27:41;;;;;;;16.43;10.80;;;9.70;99.90;;;;;;5011382;28;20433;-47
2022/04/06 11:30:12;;;;;;;16.10;10.57;;;9.70;99.90;;;;;;5011660;28;20402;-47
2022/04/06 11:32:38;;;;;;;18.07;10.87;;;9.70;99.90;;;;;;5011328;28;21091;-47
2022/04/06 11:35:09;;;;;;;15.17;9.30;;;9.80;99.90;;;;;;5011678;28;20464;-49
2022/04/06 11:37:46;;;;;;;17.73;10.30;;;9.90;99.90;;;;;;5010950;28;20476;-49
2022/04/06 11:40:13;;;;;;;15.43;9.90;;;9.80;99.90;;;;;;5011287;28;20399;-49
2022/04/06 11:42:39;;;;;;;17.17;11.30;;;9.90;99.90;;;;;;5011211;28;20411;-49
2022/04/06 11:45:05;;;;;;;17.03;9.97;;;10.00;99.90;;;;;;5011264;28;20911;-47
2022/04/06 11:47:32;;;;;;;17.63;10.67;;;10.10;99.90;;;;;;5011927;28;20195;-47
2022/04/06 11:50:00;;;;;;;23.40;10.13;;;10.20;99.90;;;;;;5011991;28;20434;-48
2022/04/06 11:52:26;;;;;;;15.87;9.00;;;10.20;99.90;;;;;;5006899;28;20935;-48
2022/04/06 11:54:56;;;;;;;16.93;11.37;;;10.20;99.90;;;;;;5010018;28;20450;-47
2022/04/06 11:57:32;;;;;;;19.03;10.40;;;10.30;99.90;;;;;;5009692;28;21303;-49
2022/04/06 11:59:58;;;;;;;16.27;10.13;;;10.30;99.90;;;;;;5012101;28;20481;-49
2022/04/06 12:02:24;;;;;;;19.57;11.63;;;10.30;99.90;;;;;;4994640;28;20447;-50
2022/04/06 12:05:00;;;;;;;32.77;11.10;;;10.30;99.90;;;;;;5010349;28;20206;-49
2022/04/06 12:07:25;;;;;;;22.17;11.00;;;10.30;99.90;;;;;;5005194;28;20287;-49
2022/04/06 12:09:51;;;;;;;20.73;10.77;;;10.20;99.90;;;;;;4990841;28;20505;-49
2022/04/06 12:12:18;;;;;;;21.27;11.53;;;10.20;99.90;;;;;;4992120;28;20299;-49
2022/04/06 12:14:44;;;;;;;16.90;11.20;;;10.20;99.90;;;;;;5010756;28;20790;-49
2022/04/06 12:17:12;;;;;;;19.10;11.57;;;10.10;99.90;;;;;;5010617;28;20430;-49
2022/04/06 12:19:37;;;;;;;18.20;11.07;;;10.00;99.90;;;;;;5010519;28;20406;-49
2022/04/06 12:22:07;;;;;;;19.10;11.60;;;9.90;99.90;;;;;;5010106;28;20442;-50
2022/04/06 12:24:37;;;;;;;22.07;11.53;;;9.80;99.90;;;;;;5010249;28;20230;-49
2022/04/06 12:27:03;;;;;;;21.43;12.20;;;9.80;99.90;;;;;;5010022;28;20490;-51
2022/04/06 12:29:29;;;;;;;16.87;11.70;;;9.70;99.90;;;;;;5008818;28;20639;-49
2022/04/06 12:31:55;;;;;;;31.30;12.73;;;9.70;99.90;;;;;;5009996;28;20620;-49
2022/04/06 12:34:38;;;;;;;19.50;11.20;;;9.70;99.90;;;;;;5010372;28;20450;-49
2022/04/06 12:39:54;;;;;;;19.53;12.07;;;9.80;99.90;;;;;;5010174;28;20414;-50
2022/04/06 12:42:21;;;;;;;21.33;12.93;;;9.80;99.90;;;;;;4992477;28;20443;-49
2022/04/06 12:45:06;;;;;;;20.20;12.10;;;9.90;99.90;;;;;;5005890;28;20427;-57
2022/04/06 12:47:32;;;;;;;20.03;12.03;;;10.10;99.90;;;;;;4993129;28;20445;-49
2022/04/06 12:50:11;;;;;;;20.03;11.90;;;10.30;99.90;;;;;;4992609;28;20438;-50
2022/04/06 12:52:39;;;;;;;21.77;12.73;;;10.40;99.90;;;;;;5010449;28;20458;-49
2022/04/06 12:55:10;;;;;;;23.77;11.67;;;10.40;99.90;;;;;;5010142;28;20454;-49
2022/04/06 12:57:37;;;;;;;23.90;11.83;;;10.40;99.90;;;;;;5010453;28;20427;-49